Las Cruces International Airport
KLRU : now visible

Airfield :











YOU CAN JOIN US ON...

 
LOGIN :

Register | Disclaimer

   EN    FR    IT 

 









Legend :    VFR   Marginal VFR   IFR   Intensive IFR   Very Intensive IFR
Visi :
Ceiling :
>= 8 km
>= 3000ft
5 to 8 km
1000 to 3000 ft
1500m to 5 km
500 to 1000 ft
800 to 1500m
200 to 500 ft
< 800m
< 200 ft
Symbols :   Thunderstorms  Fog  Heavy snow  Heavy precipitations  Wind > 20 kt






- Airport Elevation : 4456 ft
- IATA code : LRU


KLRU - Las Cruces International

CURRENT METAR :
  • 031335Z AUTO 00000KT 10SM CLR 20/16 A3024 RMK AO2 T01980158

EXPIRED METARs :
  • 031315Z AUTO 15003KT 10SM SCT070 19/16 A3024 RMK AO2 T01900157
  • 031255Z AUTO 17003KT 10SM CLR 19/16 A3024 RMK AO2 T01900156
  • 031235Z AUTO 18003KT 10SM CLR 19/16 A3023 RMK AO2 T01900155
  • 031215Z AUTO 16004KT 10SM CLR 19/16 A3023 RMK AO2 T01900155
  • 031155Z AUTO 16004KT 10SM CLR 19/16 A3022 RMK AO2 70016 T01900155 10221 20189
  • 031135Z AUTO 16003KT 10SM CLR 19/16 A3021 RMK AO2 T01900155
  • 031115Z AUTO 16004KT 10SM CLR 19/16 A3021 RMK AO2 T01910155
  • 031055Z AUTO 16004KT 10SM CLR 19/15 A3021 RMK AO2 T01920153

TAF KLRU
Valid from the 03 at 12:00 until the 04 at 12:00 UTC


031136Z 0312/0412 15004KT P6SM SKC
FM031900 15006KT P6SM VCTS SCT050CB
FM040300 27009G16KT P6SM BKN150
FM040800 14004KT P6SM BKN250
KZAB FIR / North America



MET'MAP, your aeronautical weather chart ! - Copyright ORBIFLY December 2007 - Disclaimer

ORBIFLY MET'MAP TEAM :

Programming & Development : Alexandra Zaïnal
Concept & original design : Baudouin d'Aumeries
Assistance for programming : Marc-Olivier Méhu
Technical & hardware support : Manuel Goepfert

Contact : metmap@orbifly.com




SOURCES & CREDITS :

   NOAA       Earth
Advisory